Time;durP1;ratioP1;P1;durP2;ratioP2;P2;SDS_P1;SDS_P2;PMS_P1;PMS_P2;Temp;Humidity;BMP_temperature;BMP_pressure;BME280_temperature;BME280_humidity;BME280_pressure;Samples;Min_cycle;Max_cycle;Signal;HPM_P1;HPM_P2
2023/03/28 00:01:52;;;;;;;0.53;0.40;;;;;;;-0.30;100.00;100803.41;4862116;29;20043;-80
2023/03/28 00:04:22;;;;;;;0.47;0.40;;;;;;;-0.35;100.00;100817.09;4862571;29;20044;-79
2023/03/28 00:06:50;;;;;;;0.90;0.33;;;;;;;-0.21;100.00;100815.72;4847708;29;20076;-80
2023/03/28 00:09:17;;;;;;;0.90;0.53;;;;;;;-0.41;100.00;100822.13;4877908;29;20124;-79
2023/03/28 00:11:44;;;;;;;1.07;0.50;;;;;;;-0.40;100.00;100826.50;4877705;29;20052;-79
2023/03/28 00:14:13;;;;;;;0.30;0.30;;;;;;;-0.33;100.00;100828.41;4855726;29;20096;-79
2023/03/28 00:16:44;;;;;;;0.87;0.43;;;;;;;-0.22;100.00;100841.66;4856228;29;20045;-79
2023/03/28 00:19:15;;;;;;;1.83;0.57;;;;;;;-0.44;100.00;100837.59;4845475;29;20049;-79
2023/03/28 00:21:47;;;;;;;2.87;0.80;;;;;;;-0.57;100.00;100844.19;4876663;29;20064;-80
2023/03/28 00:24:20;;;;;;;0.75;0.60;;;;;;;-0.49;100.00;100844.41;4892634;29;20045;-79
2023/03/28 00:26:48;;;;;;;0.40;0.40;;;;;;;-0.56;100.00;100845.94;4874137;29;20494;-80
2023/03/28 00:29:19;;;;;;;0.60;0.60;;;;;;;-0.47;100.00;100851.38;4856479;29;20077;-79
2023/03/28 00:31:48;;;;;;;1.90;0.73;;;;;;;-0.54;100.00;100858.97;4846586;29;20109;-79
2023/03/28 00:34:15;;;;;;;0.60;0.60;;;;;;;-0.61;100.00;100857.91;4839264;29;20445;-79
2023/03/28 00:36:42;;;;;;;0.57;0.50;;;;;;;-0.61;100.00;100869.16;4860124;29;20053;-79
2023/03/28 00:39:13;;;;;;;0.50;0.50;;;;;;;-0.55;100.00;100865.88;4845865;29;20049;-80
2023/03/28 00:41:42;;;;;;;0.50;0.33;;;;;;;-0.61;100.00;100871.75;4842311;29;20132;-79
2023/03/28 00:44:41;;;;;;;0.90;0.67;;;;;;;-0.64;100.00;100869.09;4850446;29;20525;-79
2023/03/28 00:47:36;;;;;;;2.13;0.63;;;;;;;-0.63;100.00;100883.81;4860381;29;20045;-79
2023/03/28 00:50:05;;;;;;;;;;;;;;;-0.61;100.00;100886.44;4854437;29;20214;-80
2023/03/28 00:52:39;;;;;;;1.07;0.80;;;;;;;-0.60;100.00;100883.03;4875300;29;19928;-80
2023/03/28 00:55:09;;;;;;;3.00;1.13;;;;;;;-0.62;100.00;100882.97;4837511;29;20554;-80
2023/03/28 00:57:37;;;;;;;2.60;0.70;;;;;;;-0.81;100.00;100888.50;4857816;29;20060;-82
2023/03/28 01:00:11;;;;;;;1.37;0.50;;;;;;;-0.79;100.00;100889.41;4875902;29;20074;-80
2023/03/28 01:02:44;;;;;;;0.70;0.60;;;;;;;-0.77;100.00;100892.91;4852247;29;20052;-79
2023/03/28 01:05:12;;;;;;;0.70;0.60;;;;;;;-0.85;100.00;100900.47;4856521;29;20041;-80
2023/03/28 01:07:44;;;;;;;2.13;0.70;;;;;;;-0.75;100.00;100911.16;4856507;29;20088;-80
2023/03/28 01:10:11;;;;;;;2.23;0.80;;;;;;;-0.76;100.00;100911.94;4841911;29;20074;-82
2023/03/28 01:12:40;;;;;;;1.07;0.70;;;;;;;-0.75;100.00;100912.03;4854100;29;20048;-80
2023/03/28 01:15:07;;;;;;;1.87;0.60;;;;;;;-0.65;100.00;100921.81;4860566;29;20041;-79
2023/03/28 01:17:34;;;;;;;0.80;0.80;;;;;;;-0.82;100.00;100920.47;4860540;29;20097;-79
2023/03/28 01:20:53;;;;;;;1.43;0.70;;;;;;;-0.78;100.00;100926.59;4902477;23;20695;-79
2023/03/28 01:23:58;;;;;;;1.27;0.70;;;;;;;-0.88;100.00;100931.50;4877430;29;20118;-79
2023/03/28 01:26:48;;;;;;;0.93;0.83;;;;;;;-0.87;100.00;100929.81;4844988;29;20120;-79
2023/03/28 01:29:46;;;;;;;1.10;0.80;;;;;;;-0.84;100.00;100932.50;4829971;29;20046;-80
2023/03/28 01:32:58;;;;;;;1.43;0.70;;;;;;;-0.87;100.00;100935.00;4848137;29;20062;-79
2023/03/28 01:35:50;;;;;;;0.90;0.80;;;;;;;-0.87;100.00;100940.19;4837098;29;20038;-79
2023/03/28 01:38:18;;;;;;;1.63;1.00;;;;;;;-0.94;100.00;100948.59;4839713;29;20060;-80
2023/03/28 01:41:07;;;;;;;2.73;0.90;;;;;;;-0.93;100.00;100951.22;4845445;29;20054;-79
2023/03/28 01:43:42;;;;;;;4.80;1.00;;;;;;;-0.98;100.00;100949.34;4844971;29;20046;-79
2023/03/28 01:46:21;;;;;;;1.93;1.00;;;;;;;-0.95;100.00;100944.25;4873868;29;20441;-79
2023/03/28 01:49:07;;;;;;;2.27;0.90;;;;;;;-0.79;100.00;100950.78;4834071;29;20050;-79
2023/03/28 01:51:43;;;;;;;2.00;1.10;;;;;;;-0.95;100.00;100946.84;4848789;29;20060;-79
2023/03/28 01:54:29;;;;;;;2.40;0.83;;;;;;;-0.95;100.00;100957.22;4848956;29;20045;-79
2023/03/28 01:56:59;;;;;;;2.27;0.90;;;;;;;-0.94;100.00;100954.66;4818890;29;20538;-79
2023/03/28 01:59:33;;;;;;;0.97;0.73;;;;;;;-1.04;100.00;100955.22;4837015;29;20042;-79
2023/03/28 02:02:28;;;;;;;1.35;0.85;;;;;;;-0.99;100.00;100956.25;4863576;29;20045;-79
2023/03/28 02:04:57;;;;;;;0.90;0.77;;;;;;;-0.92;100.00;100962.50;4868504;29;20492;-79
2023/03/28 02:07:25;;;;;;;2.57;1.10;;;;;;;-0.98;100.00;100973.56;4850817;29;20784;-79
2023/03/28 02:09:53;;;;;;;0.80;0.60;;;;;;;-1.03;100.00;100976.84;4851273;29;20045;-79
2023/03/28 02:12:29;;;;;;;0.77;0.67;;;;;;;-1.06;100.00;100981.94;4851343;29;20117;-78
2023/03/28 02:14:57;;;;;;;1.00;0.80;;;;;;;-1.08;100.00;100988.81;4852101;29;20042;-78
2023/03/28 02:17:25;;;;;;;1.83;0.90;;;;;;;-1.06;100.00;100992.31;4851751;29;20050;-79
2023/03/28 02:19:57;;;;;;;3.97;0.90;;;;;;;-1.10;100.00;100986.13;4851376;29;20511;-79
2023/03/28 02:22:33;;;;;;;3.53;1.00;;;;;;;-1.17;100.00;100990.28;4850317;29;20461;-79
2023/03/28 02:25:00;;;;;;;2.87;1.00;;;;;;;-0.99;100.00;100991.69;4839147;29;20056;-79
2023/03/28 02:27:27;;;;;;;0.93;0.67;;;;;;;-1.12;100.00;100993.00;4840624;29;20056;-78
2023/03/28 02:29:54;;;;;;;1.10;0.77;;;;;;;-1.07;100.00;100998.34;4839746;29;20076;-79
2023/03/28 02:32:22;;;;;;;1.97;1.00;;;;;;;-1.10;100.00;100998.22;4869373;29;20053;-79
2023/03/28 02:34:52;;;;;;;2.20;1.10;;;;;;;-1.16;100.00;100996.34;4848001;29;20049;-79
2023/03/28 02:37:40;;;;;;;1.37;1.07;;;;;;;-1.11;100.00;101001.66;4824404;29;20133;-79
2023/03/28 02:40:25;;;;;;;2.63;1.20;;;;;;;-1.29;100.00;101000.22;4864061;29;20078;-79
2023/03/28 02:43:06;;;;;;;1.80;0.77;;;;;;;-1.24;100.00;101010.75;4855088;29;20054;-80
2023/03/28 02:45:41;;;;;;;1.50;0.90;;;;;;;-1.26;100.00;101015.91;4867161;29;20045;-79
2023/03/28 02:48:13;;;;;;;1.93;0.80;;;;;;;-1.33;100.00;101013.06;4850477;29;20038;-79
2023/03/28 02:50:44;;;;;;;1.17;0.80;;;;;;;-1.27;100.00;101016.69;4849933;29;20079;-79
2023/03/28 02:53:31;;;;;;;1.00;0.90;;;;;;;-1.31;100.00;101027.81;4873011;29;20098;-80
2023/03/28 02:56:25;;;;;;;1.87;0.97;;;;;;;-1.31;100.00;101027.81;4813206;29;20066;-81
2023/03/28 02:58:58;;;;;;;1.53;0.90;;;;;;;-1.36;100.00;101029.34;4840455;29;20461;-80
2023/03/28 03:01:28;;;;;;;1.63;0.90;;;;;;;-1.35;100.00;101032.81;4810856;29;20046;-79
2023/03/28 03:03:55;;;;;;;1.13;0.83;;;;;;;-1.27;100.00;101040.03;4841631;29;20497;-79
2023/03/28 03:06:24;;;;;;;1.43;0.70;;;;;;;-1.28;100.00;101052.94;4828953;29;20057;-80
2023/03/28 03:08:50;;;;;;;1.80;0.90;;;;;;;-1.32;100.00;101054.56;4878109;29;20480;-79
2023/03/28 03:11:17;;;;;;;2.00;1.13;;;;;;;-1.37;100.00;101057.81;4861740;29;20060;-79
2023/03/28 03:13:44;;;;;;;2.47;0.90;;;;;;;-1.49;100.00;101064.34;4842701;29;20042;-80
2023/03/28 03:16:10;;;;;;;2.40;1.20;;;;;;;-1.38;100.00;101067.31;4827436;29;20499;-79
2023/03/28 03:18:37;;;;;;;2.47;1.00;;;;;;;-1.35;100.00;101071.69;4847584;29;20045;-79
2023/03/28 03:21:04;;;;;;;1.33;0.87;;;;;;;-1.30;100.00;101067.56;4841771;29;20049;-80
2023/03/28 03:23:31;;;;;;;3.23;1.10;;;;;;;-1.29;100.00;101077.97;4825727;29;20058;-80
2023/03/28 03:25:57;;;;;;;2.00;1.03;;;;;;;-1.45;100.00;101075.69;4857459;29;20526;-81
2023/03/28 03:28:24;;;;;;;3.17;1.27;;;;;;;-1.40;100.00;101075.88;4853079;29;20049;-79
2023/03/28 03:30:52;;;;;;;2.37;1.17;;;;;;;-1.28;100.00;101079.75;4829097;29;20542;-81
2023/03/28 03:33:18;;;;;;;2.03;1.17;;;;;;;-1.34;100.00;101082.16;4858127;29;20055;-80
2023/03/28 03:35:45;;;;;;;2.03;1.77;;;;;;;-1.29;100.00;101082.28;4852982;29;20038;-80
2023/03/28 03:38:12;;;;;;;2.70;1.03;;;;;;;-1.34;100.00;101089.94;4842956;29;20056;-81
2023/03/28 03:40:39;;;;;;;1.87;1.40;;;;;;;-1.38;100.00;101093.22;4841604;29;20435;-79
2023/03/28 03:43:06;;;;;;;1.70;0.90;;;;;;;-1.37;100.00;101105.34;4857810;29;20049;-80
2023/03/28 03:45:33;;;;;;;2.10;1.23;;;;;;;-1.45;100.00;101104.19;4810048;29;20049;-80
2023/03/28 03:47:59;;;;;;;1.70;1.03;;;;;;;-1.54;100.00;101096.09;4858004;29;20087;-79
2023/03/28 03:50:26;;;;;;;2.33;1.00;;;;;;;-1.36;100.00;101108.81;4842186;29;20137;-80
2023/03/28 03:52:53;;;;;;;2.63;1.30;;;;;;;-1.36;100.00;101106.22;4847978;29;20042;-80
2023/03/28 03:55:19;;;;;;;1.37;1.10;;;;;;;-1.48;100.00;101107.56;4856681;29;20060;-79
2023/03/28 03:57:46;;;;;;;2.73;0.97;;;;;;;-1.62;100.00;101102.72;4847012;29;20048;-79
2023/03/28 04:00:13;;;;;;;1.43;0.90;;;;;;;-1.60;100.00;101106.25;4840895;29;20050;-81
2023/03/28 04:02:40;;;;;;;2.83;1.20;;;;;;;-1.63;100.00;101113.91;4840020;29;20050;-79
2023/03/28 04:05:07;;;;;;;1.57;1.10;;;;;;;-1.63;100.00;101107.03;4843122;29;20034;-80
2023/03/28 04:07:35;;;;;;;1.20;0.87;;;;;;;-1.69;100.00;101124.94;4837871;29;20054;-79
2023/03/28 04:10:02;;;;;;;1.17;1.00;;;;;;;-1.74;100.00;101129.97;4860934;29;20045;-82
2023/03/28 04:12:29;;;;;;;2.73;1.30;;;;;;;-1.69;100.00;101130.09;4856750;29;20038;-78
2023/03/28 04:14:55;;;;;;;1.10;1.00;;;;;;;-1.67;100.00;101138.84;4845439;29;20043;-82
2023/03/28 04:17:28;;;;;;;1.93;0.83;;;;;;;-1.68;100.00;101136.16;4874025;29;20046;-81
2023/03/28 04:19:55;;;;;;;2.20;0.90;;;;;;;-1.73;100.00;101142.09;4842044;29;20038;-81
2023/03/28 04:22:28;;;;;;;2.30;1.30;;;;;;;-1.74;100.00;101145.50;4850032;29;20049;-80
2023/03/28 04:24:56;;;;;;;2.93;1.10;;;;;;;-1.77;100.00;101152.25;4838844;29;20077;-81
2023/03/28 04:27:25;;;;;;;2.20;0.80;;;;;;;-1.77;100.00;101158.31;4830014;29;20052;-80
2023/03/28 04:29:52;;;;;;;1.93;1.10;;;;;;;-1.62;100.00;101157.13;4847008;29;20085;-81
2023/03/28 04:32:20;;;;;;;4.03;1.33;;;;;;;-1.59;100.00;101159.84;4845068;29;20488;-81
2023/03/28 04:34:49;;;;;;;1.77;1.37;;;;;;;-1.68;100.00;101172.44;4841162;29;20516;-79
2023/03/28 04:37:17;;;;;;;2.27;1.20;;;;;;;-1.79;100.00;101167.75;4850300;29;20052;-80
2023/03/28 04:39:46;;;;;;;4.13;1.93;;;;;;;-1.77;100.00;101180.75;4826964;29;20075;-81
2023/03/28 04:42:13;;;;;;;5.40;1.30;;;;;;;-1.88;100.00;101172.59;4826058;29;20053;-81
2023/03/28 04:44:40;;;;;;;2.30;1.10;;;;;;;-1.70;100.00;101178.44;4840357;29;20347;-81
2023/03/28 04:47:10;;;;;;;2.23;1.50;;;;;;;-1.83;100.00;101188.31;4841236;29;20053;-82
2023/03/28 04:49:37;;;;;;;3.03;1.43;;;;;;;-1.89;100.00;101190.66;4840383;29;20056;-82
2023/03/28 04:52:05;;;;;;;2.87;1.40;;;;;;;-1.86;100.00;101194.22;4863782;29;20054;-81
2023/03/28 04:54:31;;;;;;;1.80;1.20;;;;;;;-1.83;100.00;101199.56;4825599;29;20397;-81
2023/03/28 04:56:58;;;;;;;2.27;1.20;;;;;;;-1.69;100.00;101205.22;4857813;29;20049;-81
2023/03/28 04:59:25;;;;;;;3.43;1.23;;;;;;;-1.72;100.00;101206.00;4829444;29;20046;-81
2023/03/28 05:01:51;;;;;;;2.80;1.10;;;;;;;-1.75;100.00;101203.31;4852123;29;20061;-80
2023/03/28 05:04:21;;;;;;;2.00;1.30;;;;;;;-1.79;100.00;101219.53;4854481;29;20071;-80
2023/03/28 05:06:49;;;;;;;1.73;1.23;;;;;;;-1.81;100.00;101223.78;4822313;29;20045;-80
2023/03/28 05:09:16;;;;;;;2.63;1.03;;;;;;;-1.77;100.00;101217.88;4823514;29;20053;-80
2023/03/28 05:11:43;;;;;;;1.80;1.13;;;;;;;-1.73;100.00;101224.97;4835448;29;20072;-81
2023/03/28 05:14:10;;;;;;;2.67;1.40;;;;;;;-1.73;100.00;101231.84;4843775;29;20081;-79
2023/03/28 05:16:36;;;;;;;2.57;1.23;;;;;;;-1.74;100.00;101233.56;4867699;29;20045;-79
2023/03/28 05:19:03;;;;;;;3.80;1.80;;;;;;;-1.76;100.00;101237.81;4834095;29;20056;-78
2023/03/28 05:21:30;;;;;;;2.73;1.40;;;;;;;-1.64;100.00;101241.69;4859195;29;20081;-81
2023/03/28 05:23:58;;;;;;;2.43;1.20;;;;;;;-1.72;100.00;101237.09;4858631;29;20045;-79
2023/03/28 05:26:24;;;;;;;2.70;1.13;;;;;;;-1.65;100.00;101252.88;4858187;29;20061;-78
2023/03/28 05:28:51;;;;;;;2.20;1.17;;;;;;;-1.56;100.00;101254.09;4858311;29;20052;-81
2023/03/28 05:31:18;;;;;;;3.27;1.37;;;;;;;-1.61;100.00;101257.34;4853403;29;20046;-80
2023/03/28 05:33:45;;;;;;;3.50;1.70;;;;;;;-1.70;100.00;101263.03;4826300;29;20049;-80
2023/03/28 05:36:11;;;;;;;2.10;1.10;;;;;;;-1.57;100.00;101261.81;4810122;29;20046;-80
2023/03/28 05:38:38;;;;;;;1.90;0.93;;;;;;;-1.57;100.00;101262.72;4847662;29;20041;-81
2023/03/28 05:41:05;;;;;;;2.47;1.33;;;;;;;-1.48;100.00;101272.53;4860705;29;20041;-80
2023/03/28 05:43:32;;;;;;;2.50;1.10;;;;;;;-1.52;100.00;101274.09;4887788;29;20057;-79
2023/03/28 05:45:59;;;;;;;1.93;1.07;;;;;;;-1.47;100.00;101277.78;4826489;29;20065;-80
2023/03/28 05:48:26;;;;;;;2.33;1.87;;;;;;;-1.32;100.00;101285.25;4847823;29;20108;-81
2023/03/28 05:50:52;;;;;;;2.73;1.73;;;;;;;-1.33;100.00;101275.72;4846971;29;20054;-81
2023/03/28 05:53:19;;;;;;;3.77;1.53;;;;;;;-1.32;100.00;101280.06;4872017;29;20511;-81
2023/03/28 05:55:46;;;;;;;2.47;1.00;;;;;;;-1.29;100.00;101287.94;4846899;29;20140;-81
2023/03/28 05:58:12;;;;;;;2.77;1.03;;;;;;;-1.19;100.00;101290.03;4844856;29;20101;-81
2023/03/28 06:00:41;;;;;;;3.30;1.50;;;;;;;-1.05;100.00;101292.28;4859071;29;20038;-80
2023/03/28 06:03:08;;;;;;;1.53;0.90;;;;;;;-1.07;100.00;101299.13;4813445;29;20054;-81
2023/03/28 06:05:42;;;;;;;2.57;1.30;;;;;;;-1.07;100.00;101301.72;4842368;29;20118;-82
2023/03/28 06:08:09;;;;;;;2.60;1.10;;;;;;;-0.94;100.00;101299.59;4829705;29;20065;-82
2023/03/28 06:10:36;;;;;;;2.50;1.00;;;;;;;-0.91;100.00;101311.81;4869860;29;20057;-80
2023/03/28 06:13:02;;;;;;;3.70;1.20;;;;;;;-1.01;100.00;101312.28;4884252;29;20046;-80
2023/03/28 06:15:29;;;;;;;2.60;1.30;;;;;;;-0.92;100.00;101312.66;4846290;29;20046;-81
2023/03/28 06:17:56;;;;;;;3.00;1.70;;;;;;;-0.86;100.00;101313.72;4851469;29;20038;-81
2023/03/28 06:20:24;;;;;;;2.00;1.20;;;;;;;-0.74;100.00;101310.72;4836530;29;20104;-80
2023/03/28 06:22:51;;;;;;;2.80;1.07;;;;;;;-0.60;100.00;101321.56;4857101;29;20049;-81
2023/03/28 06:25:18;;;;;;;2.73;1.67;;;;;;;-0.58;100.00;101327.72;4861314;29;20061;-80
2023/03/28 06:27:45;;;;;;;2.90;1.40;;;;;;;-0.62;100.00;101325.81;4840271;29;20102;-81
2023/03/28 06:30:12;;;;;;;2.27;1.17;;;;;;;-0.51;100.00;101336.56;4871168;29;20042;-81
2023/03/28 06:32:39;;;;;;;3.47;1.20;;;;;;;-0.44;100.00;101335.97;4852094;29;20532;-79
2023/03/28 06:35:06;;;;;;;2.10;1.53;;;;;;;-0.32;100.00;101332.09;4876039;29;20105;-81
2023/03/28 06:37:33;;;;;;;3.03;1.40;;;;;;;-0.01;100.00;101335.69;4863887;29;20407;-79
2023/03/28 06:40:00;;;;;;;2.70;1.50;;;;;;;0.19;100.00;101333.78;4817216;29;20121;-80
2023/03/28 06:42:26;;;;;;;2.27;1.20;;;;;;;0.24;100.00;101333.06;4816505;29;20048;-81
2023/03/28 06:44:53;;;;;;;2.40;1.20;;;;;;;0.36;100.00;101335.19;4830652;29;20497;-81
2023/03/28 06:47:20;;;;;;;3.63;1.30;;;;;;;0.84;100.00;101335.81;4861710;29;20488;-80
2023/03/28 06:49:46;;;;;;;2.10;1.13;;;;;;;1.16;100.00;101335.84;4836845;29;20618;-81
2023/03/28 06:52:13;;;;;;;2.67;1.20;;;;;;;1.75;100.00;101343.53;4872452;29;20097;-81
2023/03/28 06:54:39;;;;;;;1.93;1.20;;;;;;;2.55;100.00;101347.25;4854114;29;20042;-80
2023/03/28 06:57:06;;;;;;;1.80;1.10;;;;;;;3.31;89.55;101355.88;4891961;29;20387;-80
2023/03/28 06:59:33;;;;;;;2.40;0.90;;;;;;;3.64;85.92;101350.41;4837575;29;20057;-81
2023/03/28 07:01:59;;;;;;;2.20;1.10;;;;;;;3.80;83.48;101360.31;4835808;29;20049;-81
2023/03/28 07:04:26;;;;;;;2.00;1.20;;;;;;;3.83;79.12;101352.50;4880913;29;20042;-77
2023/03/28 07:06:53;;;;;;;2.87;0.90;;;;;;;3.69;78.51;101356.59;4848140;29;20052;-80
2023/03/28 07:09:20;;;;;;;4.17;1.43;;;;;;;3.65;77.25;101365.25;4866748;29;20049;-80
2023/03/28 07:11:46;;;;;;;1.20;1.00;;;;;;;3.42;80.92;101384.81;4830142;29;20046;-80
2023/03/28 07:14:13;;;;;;;3.50;1.40;;;;;;;3.43;85.29;101378.72;4819051;29;20049;-79
2023/03/28 07:16:40;;;;;;;3.23;1.10;;;;;;;3.12;91.08;101390.28;4840112;29;20136;-78
2023/03/28 07:19:06;;;;;;;3.17;1.40;;;;;;;2.57;96.21;101386.41;4871543;29;20041;-79
2023/03/28 07:21:33;;;;;;;2.87;1.13;;;;;;;2.09;99.56;101397.41;4847905;29;20044;-78
2023/03/28 07:24:00;;;;;;;1.43;1.10;;;;;;;2.46;100.00;101392.28;4879109;29;20078;-78
2023/03/28 07:26:27;;;;;;;6.00;1.43;;;;;;;2.26;100.00;101390.88;4848035;29;20038;-77
2023/03/28 07:28:54;;;;;;;2.60;1.40;;;;;;;2.63;100.00;101383.97;4848154;29;20050;-78
2023/03/28 07:31:23;;;;;;;2.47;1.40;;;;;;;3.00;100.00;101398.72;4865353;29;20110;-77
2023/03/28 07:33:50;;;;;;;2.47;1.20;;;;;;;3.07;98.60;101395.41;4847450;29;20050;-79
2023/03/28 07:36:19;;;;;;;2.60;1.23;;;;;;;3.23;97.53;101392.25;4846025;29;20125;-78
2023/03/28 07:38:46;;;;;;;2.10;1.10;;;;;;;2.90;97.32;101401.97;4844438;29;20052;-79
2023/03/28 07:41:15;;;;;;;2.50;1.00;;;;;;;3.37;97.45;101397.78;4833750;29;20105;-79
2023/03/28 07:46:36;;;;;;;3.75;1.10;;;;;;;2.85;90.36;101412.28;4879072;29;20601;-78
2023/03/28 07:49:03;;;;;;;2.10;1.20;;;;;;;2.84;89.67;101418.38;4864157;29;20045;-78
2023/03/28 07:51:30;;;;;;;2.70;1.10;;;;;;;2.85;89.17;101424.47;4867551;29;20049;-78
2023/03/28 07:53:57;;;;;;;2.43;1.20;;;;;;;2.22;88.13;101425.56;4881972;29;20052;-78
2023/03/28 07:56:24;;;;;;;2.63;1.10;;;;;;;2.63;88.40;101437.03;4883313;29;20442;-77
2023/03/28 07:58:50;;;;;;;3.90;1.07;;;;;;;2.81;88.06;101442.66;4868575;29;20079;-78
2023/03/28 08:01:18;;;;;;;2.97;2.07;;;;;;;2.88;91.93;101437.59;4867120;29;20104;-77
2023/03/28 08:03:45;;;;;;;2.83;1.27;;;;;;;2.35;92.85;101447.59;4850662;29;20140;-77
2023/03/28 08:06:12;;;;;;;2.93;1.03;;;;;;;2.25;97.52;101459.50;4864715;29;20053;-80
2023/03/28 08:08:56;;;;;;;2.33;1.15;;;;;;;1.89;95.74;101462.03;4866137;29;20093;-80
2023/03/28 08:11:23;;;;;;;2.90;1.20;;;;;;;1.71;97.99;101467.59;4872085;29;20063;-80
2023/03/28 08:13:50;;;;;;;2.53;1.20;;;;;;;1.48;99.02;101466.06;4849944;29;20053;-77
2023/03/28 08:16:17;;;;;;;2.77;1.20;;;;;;;1.30;100.00;101471.59;4865040;29;20061;-80
2023/03/28 08:18:44;;;;;;;4.17;1.40;;;;;;;1.36;100.00;101482.22;4889571;29;20040;-80
2023/03/28 08:21:11;;;;;;;2.23;1.27;;;;;;;1.34;100.00;101489.94;4876215;29;20516;-80
2023/03/28 08:23:37;;;;;;;11.03;2.63;;;;;;;1.10;100.00;101490.09;4872382;29;20137;-80
2023/03/28 08:26:06;;;;;;;4.17;1.20;;;;;;;0.98;100.00;101497.50;4879997;29;20041;-82
2023/03/28 08:28:34;;;;;;;3.57;1.40;;;;;;;0.89;100.00;101502.44;4863755;29;20047;-80
2023/03/28 08:31:08;;;;;;;4.03;1.50;;;;;;;0.87;100.00;101493.69;4863631;29;20057;-81
2023/03/28 08:33:35;;;;;;;3.60;2.05;;;;;;;1.13;100.00;101491.91;4870533;29;20076;-80
2023/03/28 08:36:02;;;;;;;2.87;1.57;;;;;;;1.19;100.00;101476.50;4887481;29;20037;-77
2023/03/28 08:38:29;;;;;;;2.80;1.50;;;;;;;1.37;100.00;101495.28;4887740;29;20044;-80
2023/03/28 08:41:04;;;;;;;2.10;1.30;;;;;;;1.42;100.00;101490.19;4856200;29;20044;-80
2023/03/28 08:44:10;;;;;;;2.97;1.53;;;;;;;1.74;100.00;101496.34;4884528;29;20044;-80
2023/03/28 08:46:38;;;;;;;4.00;1.27;;;;;;;1.88;100.00;101504.56;4856097;29;20403;-80
2023/03/28 08:49:08;;;;;;;1.77;1.20;;;;;;;2.17;100.00;101498.41;4903452;29;20044;-80
2023/03/28 08:51:39;;;;;;;2.97;1.40;;;;;;;2.37;100.00;101493.75;4846918;29;20045;-80
2023/03/28 08:54:13;;;;;;;2.07;1.00;;;;;;;2.51;97.63;101496.69;4865413;29;20052;-80
2023/03/28 08:56:47;;;;;;;3.47;1.63;;;;;;;2.96;100.00;101501.31;4879335;29;20044;-77
2023/03/28 08:59:16;;;;;;;1.13;1.00;;;;;;;3.01;94.49;101502.28;4864683;29;20694;-77
2023/03/28 09:01:43;;;;;;;4.83;1.40;;;;;;;3.08;89.35;101506.81;4879495;29;20119;-77
2023/03/28 09:04:20;;;;;;;1.70;1.00;;;;;;;2.89;88.57;101502.00;4883990;29;20160;-79
2023/03/28 09:06:48;;;;;;;4.10;1.20;;;;;;;2.51;82.36;101505.41;4881232;29;20048;-79
2023/03/28 09:09:26;;;;;;;2.73;1.30;;;;;;;2.51;87.10;101510.63;4871953;29;20041;-79
2023/03/28 09:12:35;;;;;;;3.67;1.30;;;;;;;2.81;91.20;101507.03;4863386;29;20785;-79
2023/03/28 09:15:21;;;;;;;3.27;1.20;;;;;;;3.15;89.30;101513.94;4864753;29;20491;-80
2023/03/28 09:18:29;;;;;;;3.03;1.20;;;;;;;3.06;80.71;101524.16;4863359;29;20116;-80
2023/03/28 09:21:12;;;;;;;1.60;1.10;;;;;;;2.63;80.67;101533.53;4868483;29;20033;-78
2023/03/28 09:24:05;;;;;;;2.10;1.00;;;;;;;2.48;85.45;101535.75;4871032;29;20079;-79
2023/03/28 09:26:42;;;;;;;1.77;1.17;;;;;;;2.41;86.81;101550.34;4878823;29;20079;-79
2023/03/28 09:29:13;;;;;;;1.73;1.00;;;;;;;2.35;79.93;101549.28;4877880;29;20068;-78
2023/03/28 09:31:45;;;;;;;3.27;1.80;;;;;;;2.30;87.74;101557.00;4884033;29;20037;-79
2023/03/28 09:34:29;;;;;;;2.20;1.00;;;;;;;2.52;84.72;101555.84;4869301;29;20545;-78
2023/03/28 09:37:04;;;;;;;3.10;1.67;;;;;;;2.78;87.51;101554.81;4885754;29;20041;-79
2023/03/28 09:39:38;;;;;;;1.80;0.93;;;;;;;2.60;80.87;101553.44;4893878;29;20072;-80
2023/03/28 09:42:05;;;;;;;1.38;0.90;;;;;;;2.56;77.78;101556.81;4888337;29;20100;-78
2023/03/28 09:44:39;;;;;;;1.97;1.17;;;;;;;2.62;76.77;101560.47;4890672;29;20405;-79
2023/03/28 09:47:20;;;;;;;2.10;1.10;;;;;;;2.95;81.54;101570.03;4896332;29;20040;-78
2023/03/28 09:49:46;;;;;;;2.93;1.30;;;;;;;3.30;75.19;101565.66;4874830;29;20045;-80
2023/03/28 09:52:20;;;;;;;1.47;1.17;;;;;;;3.65;73.31;101572.56;4880454;29;20048;-79
2023/03/28 09:54:47;;;;;;;2.53;1.40;;;;;;;4.14;76.65;101565.75;4871161;29;20053;-79
2023/03/28 09:57:14;;;;;;;2.07;1.20;;;;;;;4.41;72.44;101562.78;4859104;29;20493;-78
2023/03/28 09:59:41;;;;;;;3.70;1.03;;;;;;;4.71;73.32;101559.00;4876162;29;20041;-80
2023/03/28 10:02:25;;;;;;;2.80;1.10;;;;;;;4.40;66.50;101558.41;4860081;29;20081;-79
2023/03/28 10:04:52;;;;;;;1.30;0.83;;;;;;;4.59;68.18;101569.22;4886200;29;20600;-78
2023/03/28 10:07:30;;;;;;;1.23;1.00;;;;;;;4.71;69.64;101567.72;4847240;29;20321;-79
2023/03/28 10:09:57;;;;;;;3.77;1.13;;;;;;;4.58;68.37;101570.97;4865441;29;20495;-78
2023/03/28 10:12:31;;;;;;;1.17;0.90;;;;;;;4.80;68.55;101564.38;4855770;29;20049;-78
2023/03/28 10:14:59;;;;;;;;;;;;;;;5.27;69.06;101564.28;4847541;29;20752;-78
2023/03/28 10:17:33;;;;;;;2.57;1.47;;;;;;;5.10;64.88;101579.72;4848430;29;19990;-79
2023/03/28 10:20:06;;;;;;;1.13;0.73;;;;;;;4.53;61.99;101576.09;4856093;29;20051;-78
2023/03/28 10:22:38;;;;;;;2.03;0.90;;;;;;;4.68;60.90;101577.25;4877644;29;20064;-79
2023/03/28 10:25:07;;;;;;;1.57;0.80;;;;;;;5.01;64.31;101572.59;4867466;29;20049;-78
2023/03/28 10:27:37;;;;;;;1.53;0.80;;;;;;;5.45;54.83;101587.25;4868389;29;20045;-78
2023/03/28 10:30:31;;;;;;;1.33;0.80;;;;;;;5.84;60.23;101581.72;4885612;29;20037;-78
2023/03/28 10:33:15;;;;;;;2.55;0.93;;;;;;;5.96;55.52;101575.78;4856632;29;20053;-78
2023/03/28 10:35:44;;;;;;;1.38;0.88;;;;;;;5.83;55.34;101575.59;4895927;29;20049;-78
2023/03/28 10:38:17;;;;;;;1.30;0.87;;;;;;;5.48;54.55;101588.19;4876529;29;20045;-77
2023/03/28 10:41:11;;;;;;;1.70;0.80;;;;;;;5.52;56.50;101579.50;4898596;29;20453;-78
2023/03/28 10:43:40;;;;;;;1.70;0.70;;;;;;;5.36;56.53;101593.22;4874940;29;20036;-79
2023/03/28 10:46:12;;;;;;;3.33;1.00;;;;;;;4.77;53.45;101582.63;4876193;29;20101;-76
2023/03/28 10:48:41;;;;;;;2.00;0.90;;;;;;;4.98;54.08;101585.66;4861000;29;20065;-76
2023/03/28 10:51:14;;;;;;;0.80;0.70;;;;;;;4.76;56.85;101589.59;4890632;29;20604;-77
2023/03/28 10:53:56;;;;;;;1.25;0.80;;;;;;;4.66;56.77;101581.56;4877614;29;20051;-77
2023/03/28 10:56:51;;;;;;;1.60;0.90;;;;;;;4.41;53.86;101591.56;4869737;29;20041;-77
2023/03/28 10:59:30;;;;;;;2.17;0.80;;;;;;;4.68;55.27;101592.94;4893818;29;20056;-77
2023/03/28 11:02:08;;;;;;;1.80;0.80;;;;;;;4.75;59.02;101590.47;4890984;29;20343;-76
2023/03/28 11:04:54;;;;;;;3.53;0.80;;;;;;;4.78;51.51;101598.38;4896000;29;20041;-77
2023/03/28 11:07:34;;;;;;;0.70;0.70;;;;;;;5.14;50.66;101599.00;4864998;29;20109;-77
2023/03/28 11:10:17;;;;;;;1.07;0.70;;;;;;;4.73;50.28;101607.00;4895155;29;20048;-77
2023/03/28 11:12:55;;;;;;;0.70;0.60;;;;;;;5.28;51.55;101582.63;4891455;29;20078;-77
2023/03/28 11:16:02;;;;;;;0.67;0.67;;;;;;;5.47;51.77;101589.06;4879719;29;20047;-76
2023/03/28 11:18:52;;;;;;;1.83;0.73;;;;;;;4.78;49.31;101603.59;4903398;29;20068;-77
2023/03/28 11:21:44;;;;;;;1.63;0.73;;;;;;;5.05;53.58;101599.72;4883927;29;20060;-77
2023/03/28 11:24:32;;;;;;;1.83;0.93;;;;;;;5.21;54.20;101598.22;4878066;29;20044;-78
2023/03/28 11:27:07;;;;;;;1.33;0.80;;;;;;;5.01;49.95;101604.03;4901506;29;20112;-77
2023/03/28 11:29:57;;;;;;;3.40;1.27;;;;;;;5.28;51.92;101603.59;4897719;29;20612;-77
2023/03/28 11:32:34;;;;;;;1.23;0.77;;;;;;;5.43;49.81;101597.72;4868000;29;20128;-76
2023/03/28 11:35:13;;;;;;;1.77;0.80;;;;;;;4.99;50.42;101613.59;4870582;29;20049;-77
2023/03/28 11:37:50;;;;;;;1.13;0.80;;;;;;;4.78;50.94;101605.34;4874749;29;20120;-77
2023/03/28 11:40:27;;;;;;;1.23;0.60;;;;;;;4.82;53.46;101604.56;4861035;29;20051;-76
2023/03/28 11:43:03;;;;;;;1.67;0.60;;;;;;;4.55;50.29;101612.78;4873048;29;20562;-77
2023/03/28 11:45:36;;;;;;;1.23;0.63;;;;;;;4.47;50.25;101617.00;4890149;29;20068;-77
2023/03/28 11:48:25;;;;;;;0.93;0.67;;;;;;;4.40;48.90;101612.47;4877894;29;20123;-77
2023/03/28 11:51:11;;;;;;;2.25;0.98;;;;;;;5.01;46.89;101603.13;4886589;29;20070;-77